KGLR/GLR METAR and TAF weather

Enter ICAO airport designator
Station Type Date Time Source
KGLR METAR 2019/02/22 21:53 UTC NOAA

KGLR 222153Z AUTO 25004KT 10SM CLR 01/M07 A3037 RMK AO2 SLP303 T00061072


Station Type Date Time Source
KGLR Decoded METAR 2019/02/22 21:53 UTC NOAA

GAYLORD REGIONAL AIRPORT, MI, United States (KGLR) 45-01N 84-41W 407M
Feb 22, 2019 - 04:53 PM EST / 2019.02.22 2153 UTC
Wind: from the WSW (250 degrees) at 5 MPH (4 KT):0
Visibility: 10 mile(s):0
Sky conditions: clear
Temperature: 33.1 F (0.6 C)
Windchill: 28 F (-2 C):1
Dew Point: 19.0 F (-7.2 C)
Relative Humidity: 55%
Pressure (altimeter): 30.37 in. Hg (1028 hPa)
ob: KGLR 222153Z AUTO 25004KT 10SM CLR 01/M07 A3037 RMK AO2 SLP303 T00061072
cycle: 22

Station Type Date Time Source
KGLR TAF UTC NOAA

Error!


Example: see airport list